createdAt,value
2023-02-17T00:01:37.667Z,16.40
2023-02-17T00:04:07.378Z,17.60
2023-02-17T00:06:35.965Z,18.00
2023-02-17T00:09:04.448Z,18.00
2023-02-17T00:11:32.833Z,17.90
2023-02-17T00:14:01.312Z,19.10
2023-02-17T00:16:30.315Z,22.40
2023-02-17T00:19:00.429Z,21.40
2023-02-17T00:21:30.179Z,20.00
2023-02-17T00:23:58.955Z,24.00
2023-02-17T00:26:27.543Z,20.40
2023-02-17T00:28:56.348Z,21.10
2023-02-17T00:31:25.402Z,23.40
2023-02-17T00:33:55.946Z,21.30
2023-02-17T00:36:24.876Z,15.70
2023-02-17T00:38:54.551Z,25.20
2023-02-17T00:41:22.984Z,30.40
2023-02-17T00:43:51.425Z,30.60
2023-02-17T00:46:20.027Z,27.70
2023-02-17T00:48:48.762Z,28.60
2023-02-17T00:51:17.496Z,27.20
2023-02-17T00:53:46.327Z,30.80
2023-02-17T00:56:14.970Z,28.00
2023-02-17T00:58:43.771Z,28.10
2023-02-17T01:01:12.448Z,31.40
2023-02-17T01:03:42.547Z,35.70
2023-02-17T01:06:14.953Z,27.70
2023-02-17T01:08:43.333Z,29.40
2023-02-17T01:11:18.139Z,29.10
2023-02-17T01:13:46.760Z,31.10
2023-02-17T01:16:20.728Z,32.10
2023-02-17T01:18:50.165Z,32.60
2023-02-17T01:21:27.392Z,35.60
2023-02-17T01:23:57.204Z,33.30
2023-02-17T01:26:26.699Z,34.30
2023-02-17T01:28:55.265Z,33.70
2023-02-17T01:31:24.398Z,31.00
2023-02-17T01:34:00.120Z,38.20
2023-02-17T01:36:28.707Z,34.10
2023-02-17T01:39:00.668Z,39.00
2023-02-17T01:41:29.052Z,38.30
2023-02-17T01:44:14.341Z,38.90
2023-02-17T01:46:46.434Z,38.40
2023-02-17T01:49:19.788Z,38.70
2023-02-17T01:51:52.570Z,41.90
2023-02-17T01:54:27.514Z,44.60
2023-02-17T01:56:55.886Z,45.60
2023-02-17T01:59:24.265Z,51.50
2023-02-17T02:01:54.814Z,47.50
2023-02-17T02:04:25.642Z,51.80
2023-02-17T02:06:54.530Z,52.90
2023-02-17T02:09:41.377Z,49.10
2023-02-17T02:12:20.992Z,49.70
2023-02-17T02:14:49.473Z,54.20
2023-02-17T02:17:41.350Z,50.50
2023-02-17T02:20:24.952Z,56.70
2023-02-17T02:23:12.269Z,52.30
2023-02-17T02:25:40.547Z,44.70
2023-02-17T02:28:44.355Z,50.70
2023-02-17T02:31:34.304Z,53.70
2023-02-17T02:36:38.995Z,53.80
2023-02-17T02:39:18.548Z,47.20
2023-02-17T02:41:49.109Z,53.40
2023-02-17T02:44:19.384Z,46.50
2023-02-17T02:47:01.802Z,52.80
2023-02-17T02:49:35.918Z,57.70
2023-02-17T02:54:51.210Z,50.20
2023-02-17T02:57:30.553Z,54.70
2023-02-17T03:00:06.405Z,53.50
2023-02-17T03:03:08.681Z,56.50
2023-02-17T03:05:51.602Z,49.20
2023-02-17T03:08:26.909Z,51.60
2023-02-17T03:10:55.736Z,58.60
2023-02-17T03:13:24.221Z,54.30
2023-02-17T03:15:53.314Z,52.60
2023-02-17T03:18:21.818Z,54.90
2023-02-17T03:20:57.635Z,55.40
2023-02-17T03:23:26.861Z,55.90
2023-02-17T03:25:55.544Z,58.70
2023-02-17T03:30:54.041Z,51.80
2023-02-17T03:33:22.523Z,57.10
2023-02-17T03:35:51.109Z,58.50
2023-02-17T03:38:19.489Z,57.90
2023-02-17T03:40:47.869Z,58.70
2023-02-17T03:43:17.864Z,58.70
2023-02-17T03:45:46.402Z,60.60
2023-02-17T03:48:19.163Z,59.30
2023-02-17T03:50:47.639Z,57.20
2023-02-17T03:53:16.529Z,54.40
2023-02-17T03:55:45.423Z,58.70
2023-02-17T03:58:13.802Z,60.60
2023-02-17T04:00:42.400Z,57.80
2023-02-17T04:03:13.121Z,61.20
2023-02-17T04:05:41.604Z,59.00
2023-02-17T04:08:09.984Z,58.00
2023-02-17T04:10:38.401Z,58.00
2023-02-17T04:13:06.844Z,58.50
2023-02-17T04:15:37.102Z,61.30
2023-02-17T04:18:05.451Z,59.50
2023-02-17T04:20:34.034Z,61.90
2023-02-17T04:23:02.768Z,57.70
2023-02-17T04:25:34.302Z,61.90
2023-02-17T04:28:04.192Z,64.90
2023-02-17T04:30:33.735Z,62.70
2023-02-17T04:33:02.805Z,47.70
2023-02-17T04:35:31.998Z,59.80
2023-02-17T04:38:00.690Z,62.00
2023-02-17T04:40:29.578Z,52.00
2023-02-17T04:43:01.952Z,60.30
2023-02-17T04:45:30.944Z,64.30
2023-02-17T04:48:00.363Z,61.30
2023-02-17T04:50:29.140Z,62.30
2023-02-17T04:52:57.518Z,65.80
2023-02-17T04:55:26.513Z,46.90
2023-02-17T04:57:54.895Z,64.70
2023-02-17T05:00:23.377Z,70.20
2023-02-17T05:02:51.763Z,60.30
2023-02-17T05:05:21.468Z,64.40
2023-02-17T05:07:49.848Z,63.60
2023-02-17T05:10:18.437Z,70.80
2023-02-17T05:12:46.711Z,69.20
2023-02-17T05:15:20.927Z,63.20
2023-02-17T05:17:50.228Z,65.90
2023-02-17T05:20:18.815Z,64.30
2023-02-17T05:22:47.297Z,64.20
2023-02-17T05:25:16.086Z,66.80
2023-02-17T05:27:45.797Z,67.20
2023-02-17T05:30:14.416Z,67.90
2023-02-17T05:32:42.867Z,67.20
2023-02-17T05:35:11.657Z,64.80
2023-02-17T05:37:41.161Z,65.70
2023-02-17T05:40:10.446Z,64.90
2023-02-17T05:42:38.755Z,52.60
2023-02-17T05:45:07.594Z,71.80
2023-02-17T05:47:37.351Z,65.60
2023-02-17T05:50:06.666Z,69.60
2023-02-17T05:52:35.033Z,55.50
2023-02-17T05:55:05.074Z,62.90
2023-02-17T06:00:03.821Z,68.30
2023-02-17T06:02:40.479Z,74.20
2023-02-17T06:05:09.138Z,66.60
2023-02-17T06:07:39.343Z,65.80
2023-02-17T06:10:08.859Z,72.30
2023-02-17T06:12:37.438Z,52.80
2023-02-17T06:15:06.597Z,75.70
2023-02-17T06:17:40.962Z,71.90
2023-02-17T06:20:10.165Z,71.80
2023-02-17T06:22:38.650Z,57.30
2023-02-17T06:25:07.427Z,67.50
2023-02-17T06:30:22.264Z,66.30
2023-02-17T06:32:51.010Z,72.40
2023-02-17T06:35:19.381Z,73.60
2023-02-17T06:37:48.371Z,64.90
2023-02-17T06:40:18.204Z,67.50
2023-02-17T06:42:46.576Z,66.10
2023-02-17T06:45:16.070Z,69.50
2023-02-17T06:47:45.893Z,72.40
2023-02-17T06:50:16.320Z,73.00
2023-02-17T06:52:45.919Z,73.30
2023-02-17T06:55:14.304Z,73.30
2023-02-17T06:57:42.678Z,68.20
2023-02-17T07:00:11.775Z,66.60
2023-02-17T07:02:40.890Z,71.40
2023-02-17T07:05:09.468Z,73.50
2023-02-17T07:07:38.767Z,80.40
2023-02-17T07:10:08.236Z,72.50
2023-02-17T07:12:39.210Z,69.50
2023-02-17T07:15:12.049Z,72.60
2023-02-17T07:17:42.028Z,69.10
2023-02-17T07:20:10.950Z,73.10
2023-02-17T07:22:39.796Z,75.00
2023-02-17T07:25:08.610Z,76.50
2023-02-17T07:27:37.480Z,78.10
2023-02-17T07:30:06.811Z,76.10
2023-02-17T07:35:04.877Z,71.80
2023-02-17T07:37:34.812Z,73.40
2023-02-17T07:40:04.509Z,75.00
2023-02-17T07:42:33.187Z,57.40
2023-02-17T07:45:01.666Z,68.90
2023-02-17T07:47:33.014Z,74.20
2023-02-17T07:50:01.397Z,69.20
2023-02-17T07:52:30.083Z,71.20
2023-02-17T07:54:58.670Z,72.90
2023-02-17T07:57:27.012Z,70.30
2023-02-17T07:59:55.330Z,65.00
2023-02-17T08:02:24.012Z,65.30
2023-02-17T08:04:53.836Z,69.90
2023-02-17T08:07:22.309Z,67.80
2023-02-17T08:10:10.655Z,63.80
2023-02-17T08:13:09.985Z,64.10
2023-02-17T08:15:38.444Z,64.40
2023-02-17T08:18:06.934Z,67.30
2023-02-17T08:20:35.641Z,63.60
2023-02-17T08:23:04.102Z,64.20
2023-02-17T08:25:34.126Z,70.10
2023-02-17T08:28:04.972Z,60.30
2023-02-17T08:30:36.065Z,61.00
2023-02-17T08:33:05.462Z,70.40
2023-02-17T08:35:34.195Z,63.90
2023-02-17T08:38:02.714Z,69.30
2023-02-17T08:40:31.494Z,72.90
2023-02-17T08:43:01.178Z,69.20
2023-02-17T08:45:31.108Z,68.50
2023-02-17T08:47:59.819Z,68.30
2023-02-17T08:50:28.158Z,69.10
2023-02-17T08:52:56.707Z,69.90
2023-02-17T08:55:25.342Z,70.40
2023-02-17T08:57:54.332Z,72.60
2023-02-17T09:00:26.907Z,67.40
2023-02-17T09:02:55.383Z,73.80
2023-02-17T09:05:24.926Z,72.40
2023-02-17T09:10:22.671Z,72.00
2023-02-17T09:12:52.509Z,71.70
2023-02-17T09:15:21.081Z,73.80
2023-02-17T09:17:49.486Z,75.80
2023-02-17T09:20:25.070Z,78.20
2023-02-17T09:22:54.602Z,78.70
2023-02-17T09:25:23.373Z,77.00
2023-02-17T09:27:52.089Z,82.20
2023-02-17T09:30:20.852Z,80.50
2023-02-17T09:32:49.370Z,84.30
2023-02-17T09:35:21.324Z,76.60
2023-02-17T09:37:50.276Z,77.30
2023-02-17T09:40:19.932Z,81.00
2023-02-17T09:42:48.516Z,82.50
2023-02-17T09:45:21.607Z,79.50
2023-02-17T09:48:07.693Z,81.10
2023-02-17T09:50:44.387Z,81.60
2023-02-17T09:53:31.966Z,73.10
2023-02-17T09:56:02.438Z,77.80
2023-02-17T09:58:41.155Z,71.80
2023-02-17T10:01:12.527Z,75.30
2023-02-17T10:03:47.028Z,75.80
2023-02-17T10:06:45.821Z,77.90
2023-02-17T10:09:19.936Z,77.70
2023-02-17T10:11:53.920Z,83.20
2023-02-17T10:14:28.026Z,80.90
2023-02-17T10:17:34.576Z,76.00
2023-02-17T10:20:21.184Z,82.60
2023-02-17T10:22:56.586Z,83.30
2023-02-17T10:26:02.779Z,86.50
2023-02-17T10:28:31.542Z,81.30
2023-02-17T10:31:04.289Z,85.60
2023-02-17T10:33:45.025Z,84.20
2023-02-17T10:36:52.223Z,87.50
2023-02-17T10:39:58.863Z,76.10
2023-02-17T10:42:31.952Z,76.70
2023-02-17T10:45:25.559Z,74.60
2023-02-17T10:47:58.307Z,72.20
2023-02-17T10:50:27.000Z,71.50
2023-02-17T10:52:56.705Z,69.40
2023-02-17T10:55:36.658Z,71.90
2023-02-17T10:58:11.384Z,73.00
2023-02-17T11:00:42.342Z,67.70
2023-02-17T11:03:21.080Z,64.20
2023-02-17T11:06:18.617Z,66.20
2023-02-17T11:09:02.261Z,73.00
2023-02-17T11:11:32.681Z,78.60
2023-02-17T11:14:07.200Z,75.50
2023-02-17T11:16:37.356Z,73.00
2023-02-17T11:19:07.258Z,67.00
2023-02-17T11:21:37.680Z,72.60
2023-02-17T11:24:11.394Z,67.00
2023-02-17T11:26:39.853Z,65.70
2023-02-17T11:29:16.330Z,69.60
2023-02-17T11:32:01.515Z,66.40
2023-02-17T11:34:33.260Z,67.00
2023-02-17T11:37:13.760Z,70.10
2023-02-17T11:39:44.179Z,71.10
2023-02-17T11:42:25.228Z,69.90
2023-02-17T11:44:54.836Z,69.20
2023-02-17T11:47:39.305Z,59.70
2023-02-17T11:50:13.830Z,69.00
2023-02-17T11:53:19.797Z,60.80
2023-02-17T11:55:59.627Z,62.50
2023-02-17T11:58:31.185Z,61.50
2023-02-17T12:01:11.645Z,60.40
2023-02-17T12:03:41.150Z,58.50
2023-02-17T12:06:23.250Z,44.30
2023-02-17T12:09:12.424Z,63.90
2023-02-17T12:12:02.915Z,55.80
2023-02-17T12:14:50.341Z,58.20
2023-02-17T12:17:18.638Z,58.50
2023-02-17T12:20:09.641Z,53.00
2023-02-17T12:23:33.512Z,54.00
2023-02-17T12:26:17.252Z,58.70
2023-02-17T12:29:26.593Z,54.80
2023-02-17T12:32:06.915Z,50.70
2023-02-17T12:35:01.653Z,54.10
2023-02-17T12:37:35.362Z,56.80
2023-02-17T12:40:06.604Z,55.70
2023-02-17T12:42:43.990Z,55.90
2023-02-17T12:45:21.609Z,54.20
2023-02-17T12:48:22.943Z,55.40
2023-02-17T12:51:12.936Z,52.20
2023-02-17T12:54:17.668Z,55.00
2023-02-17T12:57:10.626Z,54.60
2023-02-17T12:59:40.969Z,50.70
2023-02-17T13:04:43.948Z,52.50
2023-02-17T13:07:15.197Z,55.00
2023-02-17T13:09:45.728Z,54.80
2023-02-17T13:12:23.426Z,51.60
2023-02-17T13:14:55.120Z,49.60
2023-02-17T13:17:40.772Z,52.70
2023-02-17T13:20:12.232Z,53.70
2023-02-17T13:22:44.030Z,52.70
2023-02-17T13:25:34.524Z,35.80
2023-02-17T13:28:33.054Z,59.10
2023-02-17T13:31:13.305Z,57.90
2023-02-17T13:33:47.437Z,56.80
2023-02-17T13:36:20.838Z,59.40
2023-02-17T13:39:27.836Z,55.20
2023-02-17T13:42:00.398Z,51.50
2023-02-17T13:44:33.989Z,55.60
2023-02-17T13:47:29.618Z,50.80
2023-02-17T13:49:58.009Z,50.70
2023-02-17T13:52:28.122Z,53.20
2023-02-17T13:55:04.266Z,47.60
2023-02-17T13:57:36.455Z,52.20
2023-02-17T14:00:07.296Z,52.00
2023-02-17T14:02:51.755Z,55.40
2023-02-17T14:05:33.553Z,86.20
2023-02-17T14:08:17.497Z,52.40
2023-02-17T14:10:47.314Z,51.20
2023-02-17T14:13:20.819Z,50.90
2023-02-17T14:15:59.898Z,57.10
2023-02-17T14:18:36.930Z,56.40
2023-02-17T14:21:13.158Z,64.80
2023-02-17T14:23:49.265Z,66.80
2023-02-17T14:26:37.711Z,70.00
2023-02-17T14:29:08.458Z,66.30
2023-02-17T14:31:42.087Z,70.80
2023-02-17T14:34:24.670Z,65.80
2023-02-17T14:36:54.183Z,67.90
2023-02-17T14:39:22.661Z,63.30
2023-02-17T14:41:52.479Z,65.30
2023-02-17T14:44:21.681Z,70.60
2023-02-17T14:46:50.399Z,71.70
2023-02-17T14:49:19.467Z,69.20
2023-02-17T14:51:47.850Z,74.80
2023-02-17T14:54:17.221Z,74.00
2023-02-17T14:57:05.414Z,72.40
2023-02-17T14:59:35.222Z,76.90
2023-02-17T15:02:04.012Z,73.50
2023-02-17T15:04:32.831Z,76.20
2023-02-17T15:07:01.287Z,78.10
2023-02-17T15:09:31.193Z,80.70
2023-02-17T15:11:59.502Z,76.60
2023-02-17T15:14:27.867Z,77.20
2023-02-17T15:16:56.867Z,78.40
2023-02-17T15:19:25.653Z,73.50
2023-02-17T15:21:58.033Z,75.30
2023-02-17T15:24:46.177Z,73.00
2023-02-17T15:27:15.502Z,74.40
2023-02-17T15:29:44.473Z,72.80
2023-02-17T15:32:19.277Z,69.40
2023-02-17T15:34:47.686Z,73.70
2023-02-17T15:37:16.065Z,76.00
2023-02-17T15:39:44.550Z,66.60
2023-02-17T15:42:13.751Z,65.90
2023-02-17T15:44:48.935Z,70.20
2023-02-17T15:47:20.663Z,67.30
2023-02-17T15:49:50.259Z,69.30
2023-02-17T15:52:18.691Z,68.00
2023-02-17T15:54:48.567Z,66.10
2023-02-17T15:57:24.211Z,71.90
2023-02-17T15:59:55.357Z,71.30
2023-02-17T16:02:24.561Z,72.70
2023-02-17T16:04:54.379Z,71.70
2023-02-17T16:07:23.270Z,69.30
2023-02-17T16:09:51.750Z,70.10
2023-02-17T16:12:27.206Z,74.80
2023-02-17T16:14:57.645Z,72.60
2023-02-17T16:17:28.169Z,76.10
2023-02-17T16:19:56.645Z,72.80
2023-02-17T16:22:25.441Z,73.70
2023-02-17T16:25:14.817Z,70.40
2023-02-17T16:27:43.951Z,55.00
2023-02-17T16:30:20.005Z,73.40
2023-02-17T16:32:51.322Z,72.10
2023-02-17T16:35:25.000Z,75.10
2023-02-17T16:37:54.743Z,75.00
2023-02-17T16:40:26.076Z,75.50
2023-02-17T16:42:55.303Z,83.60
2023-02-17T16:45:26.080Z,73.00
2023-02-17T16:47:56.729Z,72.70
2023-02-17T16:50:27.919Z,72.50
2023-02-17T16:53:03.261Z,69.30
2023-02-17T16:55:35.146Z,73.50
2023-02-17T16:58:04.402Z,60.10
2023-02-17T17:00:33.423Z,73.00
2023-02-17T17:03:02.414Z,76.10
2023-02-17T17:05:31.717Z,72.80
2023-02-17T17:08:00.113Z,71.90
2023-02-17T17:10:34.006Z,73.00
2023-02-17T17:13:02.489Z,71.10
2023-02-17T17:15:35.273Z,82.10
2023-02-17T17:18:06.010Z,76.90
2023-02-17T17:20:40.802Z,79.20
2023-02-17T17:23:12.602Z,72.00
2023-02-17T17:25:42.944Z,72.30
2023-02-17T17:28:16.436Z,68.30
2023-02-17T17:30:45.133Z,69.60
2023-02-17T17:33:13.516Z,72.20
2023-02-17T17:35:43.632Z,73.00
2023-02-17T17:38:15.817Z,73.10
2023-02-17T17:40:53.676Z,71.60
2023-02-17T17:43:23.216Z,61.50
2023-02-17T17:45:52.046Z,68.90
2023-02-17T17:48:21.753Z,68.10
2023-02-17T17:50:50.610Z,74.10
2023-02-17T17:53:19.500Z,74.50
2023-02-17T17:55:48.394Z,64.80
2023-02-17T17:58:17.417Z,71.70
2023-02-17T18:00:50.696Z,68.00
2023-02-17T18:03:20.604Z,71.50
2023-02-17T18:05:48.988Z,69.20
2023-02-17T18:08:19.006Z,72.40
2023-02-17T18:10:47.593Z,74.10
2023-02-17T18:13:16.803Z,65.80
2023-02-17T18:15:45.461Z,67.60
2023-02-17T18:18:13.863Z,68.10
2023-02-17T18:20:42.796Z,61.00
2023-02-17T18:23:11.245Z,66.70
2023-02-17T18:25:40.443Z,64.00
2023-02-17T18:28:08.824Z,63.50
2023-02-17T18:30:37.774Z,65.60
2023-02-17T18:33:08.140Z,58.80
2023-02-17T18:35:37.054Z,59.10
2023-02-17T18:38:05.518Z,55.90
2023-02-17T18:40:40.636Z,57.70
2023-02-17T18:43:10.058Z,57.20
2023-02-17T18:48:02.003Z,57.60
2023-02-17T18:50:33.357Z,58.20
2023-02-17T18:53:05.205Z,53.50
2023-02-17T18:55:37.362Z,54.10
2023-02-17T18:58:05.772Z,53.10
2023-02-17T19:00:34.260Z,55.30
2023-02-17T19:03:06.323Z,56.30
2023-02-17T19:05:35.936Z,61.20
2023-02-17T19:08:08.919Z,57.20
2023-02-17T19:10:38.121Z,59.60
2023-02-17T19:13:07.014Z,62.40
2023-02-17T19:15:38.194Z,57.00
2023-02-17T19:18:06.769Z,54.80
2023-02-17T19:20:43.478Z,62.50
2023-02-17T19:23:12.516Z,63.80
2023-02-17T19:25:41.106Z,59.80
2023-02-17T19:30:39.919Z,56.90
2023-02-17T19:33:10.752Z,57.80
2023-02-17T19:35:41.830Z,61.40
2023-02-17T19:38:10.590Z,60.90
2023-02-17T19:40:40.511Z,64.30
2023-02-17T19:43:08.763Z,61.10
2023-02-17T19:45:37.579Z,53.40
2023-02-17T19:48:06.062Z,52.70
2023-02-17T19:50:37.413Z,58.70
2023-02-17T19:53:05.904Z,57.80
2023-02-17T19:55:34.280Z,61.20
2023-02-17T19:58:03.892Z,60.00
2023-02-17T20:00:32.374Z,59.00
2023-02-17T20:03:00.903Z,50.70
2023-02-17T20:05:31.502Z,40.40
2023-02-17T20:10:30.006Z,56.20
2023-02-17T20:12:58.582Z,51.90
2023-02-17T20:15:26.962Z,59.20
2023-02-17T20:17:55.549Z,56.30
2023-02-17T20:20:23.890Z,55.60
2023-02-17T20:22:52.210Z,51.20
2023-02-17T20:25:20.692Z,53.10
2023-02-17T20:27:49.098Z,55.60
2023-02-17T20:30:19.670Z,59.70
2023-02-17T20:32:48.404Z,61.60
2023-02-17T20:35:16.787Z,65.10
2023-02-17T20:37:45.161Z,54.60
2023-02-17T20:40:14.164Z,55.70
2023-02-17T20:42:46.430Z,66.10
2023-02-17T20:45:15.636Z,62.30
2023-02-17T20:47:44.014Z,68.10
2023-02-17T20:50:20.384Z,68.40
2023-02-17T20:52:49.073Z,66.30
2023-02-17T20:55:20.018Z,47.70
2023-02-17T20:57:48.593Z,64.80
2023-02-17T21:00:20.459Z,66.30
2023-02-17T21:02:52.560Z,77.00
2023-02-17T21:05:21.836Z,74.30
2023-02-17T21:07:50.341Z,71.80
2023-02-17T21:10:24.279Z,75.20
2023-02-17T21:12:52.920Z,75.90
2023-02-17T21:15:21.506Z,78.20
2023-02-17T21:17:49.962Z,77.70
2023-02-17T21:20:20.142Z,73.60
2023-02-17T21:22:48.700Z,78.70
2023-02-17T21:25:17.806Z,80.10
2023-02-17T21:27:48.632Z,81.70
2023-02-17T21:30:17.370Z,75.20
2023-02-17T21:32:45.800Z,76.70
2023-02-17T21:35:14.287Z,77.90
2023-02-17T21:37:43.584Z,83.50
2023-02-17T21:40:12.685Z,61.10
2023-02-17T21:42:59.495Z,75.70
2023-02-17T21:45:28.337Z,80.20
2023-02-17T21:47:56.875Z,74.80
2023-02-17T21:50:25.560Z,74.20
2023-02-17T21:52:54.048Z,77.70
2023-02-17T21:55:22.526Z,80.00
2023-02-17T21:57:51.010Z,77.30
2023-02-17T22:00:20.516Z,78.60
2023-02-17T22:02:49.002Z,76.20
2023-02-17T22:05:18.609Z,74.60
2023-02-17T22:07:51.394Z,77.50
2023-02-17T22:10:19.776Z,79.20
2023-02-17T22:12:48.361Z,77.00
2023-02-17T22:15:16.742Z,75.20
2023-02-17T22:17:50.758Z,76.50
2023-02-17T22:20:19.650Z,76.30
2023-02-17T22:22:48.031Z,79.90
2023-02-17T22:25:16.514Z,83.20
2023-02-17T22:27:44.827Z,79.30
2023-02-17T22:30:13.594Z,77.50
2023-02-17T22:32:43.526Z,74.30
2023-02-17T22:35:12.194Z,72.80
2023-02-17T22:37:41.699Z,78.10
2023-02-17T22:40:12.027Z,85.10
2023-02-17T22:42:41.841Z,83.00
2023-02-17T22:45:12.169Z,77.80
2023-02-17T22:47:42.193Z,79.90
2023-02-17T22:50:10.838Z,79.60
2023-02-17T22:52:39.260Z,79.10
2023-02-17T22:55:08.156Z,85.80
2023-02-17T22:57:36.535Z,89.30
2023-02-17T23:00:06.789Z,83.70
2023-02-17T23:02:37.093Z,88.00
2023-02-17T23:05:06.117Z,83.60
2023-02-17T23:07:40.518Z,87.80
2023-02-17T23:10:09.867Z,88.70
2023-02-17T23:12:38.196Z,96.40
2023-02-17T23:17:56.771Z,90.70
2023-02-17T23:20:26.495Z,88.30
2023-02-17T23:22:55.175Z,88.10
2023-02-17T23:25:24.069Z,96.40
2023-02-17T23:27:53.884Z,93.80
2023-02-17T23:30:23.456Z,90.90
2023-02-17T23:32:52.289Z,90.30
2023-02-17T23:35:20.667Z,93.80
2023-02-17T23:37:53.248Z,101.40
2023-02-17T23:40:21.632Z,96.70
2023-02-17T23:42:50.527Z,96.00
2023-02-17T23:45:19.115Z,100.50
2023-02-17T23:47:49.645Z,98.50
2023-02-17T23:50:19.085Z,98.40
2023-02-17T23:52:48.661Z,92.60
2023-02-17T23:55:17.147Z,92.30
2023-02-17T23:57:45.523Z,101.30
